Time;durP1;ratioP1;P1;durP2;ratioP2;P2;SDS_P1;SDS_P2;PMS_P1;PMS_P2;Temp;Humidity;BMP_temperature;BMP_pressure;BME280_temperature;BME280_humidity;BME280_pressure;Samples;Min_cycle;Max_cycle;Signal;HPM_P1;HPM_P2
2022/05/10 00:00:06;;;;;;;5.95;3.10;;;;;;;10.05;96.45;97926.41;5036894;28;20139;-85
2022/05/10 00:02:33;;;;;;;8.85;3.22;;;;;;;10.07;97.17;97921.84;5053151;28;20036;-85
2022/05/10 00:04:58;;;;;;;6.78;3.47;;;;;;;9.99;96.78;97913.38;5053127;28;20020;-85
2022/05/10 00:07:26;;;;;;;7.80;3.08;;;;;;;9.95;95.38;97919.81;5053855;28;20027;-86
2022/05/10 00:09:52;;;;;;;7.50;2.92;;;;;;;9.90;96.39;97921.03;5037038;28;20447;-85
2022/05/10 00:12:17;;;;;;;7.25;3.00;;;;;;;9.83;95.93;97909.78;5054265;28;20028;-85
2022/05/10 00:14:43;;;;;;;5.40;2.78;;;;;;;9.76;96.36;97921.72;5037713;28;20040;-85
2022/05/10 00:17:17;;;;;;;4.13;2.72;;;;;;;9.67;98.25;97919.56;5055068;28;20409;-86
2022/05/10 00:19:43;;;;;;;16.27;3.33;;;;;;;9.64;99.28;97914.38;5037330;28;20036;-86
2022/05/10 00:22:08;;;;;;;5.53;3.35;;;;;;;9.65;98.35;97916.97;5053633;28;20381;-86
2022/05/10 00:24:34;;;;;;;10.63;2.95;;;;;;;9.65;98.79;97910.75;5053361;28;20039;-85
2022/05/10 00:27:00;;;;;;;5.45;3.60;;;;;;;9.55;99.50;97890.81;5036488;28;20028;-84
2022/05/10 00:29:26;;;;;;;7.13;3.15;;;;;;;9.53;100.00;97906.06;5054058;28;20121;-85
2022/05/10 00:31:52;;;;;;;6.57;3.30;;;;;;;9.58;100.00;97904.00;5054131;28;20072;-85
2022/05/10 00:34:17;;;;;;;4.53;3.03;;;;;;;9.62;100.00;97917.13;5053516;28;20020;-85
2022/05/10 00:36:43;;;;;;;7.07;3.55;;;;;;;9.53;100.00;97908.75;5053260;28;20060;-85
2022/05/10 00:39:09;;;;;;;6.15;3.10;;;;;;;9.44;100.00;97906.53;5053132;28;20032;-86
2022/05/10 00:42:00;;;;;;;4.85;3.30;;;;;;;9.48;100.00;97911.63;5053368;28;20025;-86
2022/05/10 00:44:40;;;;;;;6.97;3.33;;;;;;;9.45;100.00;97918.94;5053484;28;20036;-86
2022/05/10 00:47:16;;;;;;;7.57;3.80;;;;;;;9.31;100.00;97926.78;5053695;28;20096;-86
2022/05/10 00:49:52;;;;;;;6.30;3.60;;;;;;;9.22;100.00;97902.31;5070041;28;20024;-86
2022/05/10 00:52:25;;;;;;;5.22;3.25;;;;;;;9.22;100.00;97918.31;5043090;28;20025;-86
2022/05/10 00:55:05;;;;;;;4.93;3.50;;;;;;;9.22;100.00;97912.97;5034344;28;20025;-86
2022/05/10 00:57:36;;;;;;;6.78;3.08;;;;;;;9.16;100.00;97905.28;5053477;28;20055;-86
2022/05/10 01:00:12;;;;;;;5.88;3.20;;;;;;;9.19;100.00;97915.81;5051680;28;20471;-86
2022/05/10 01:03:04;;;;;;;6.07;3.40;;;;;;;9.24;100.00;97911.09;5053004;28;20047;-86
2022/05/10 01:05:58;;;;;;;5.53;3.50;;;;;;;9.25;100.00;97919.97;5022254;28;20032;-86
2022/05/10 01:08:30;;;;;;;7.60;3.25;;;;;;;9.08;100.00;97918.13;5051169;28;20086;-86
2022/05/10 01:11:21;;;;;;;6.33;3.37;;;;;;;9.04;100.00;97918.38;5053138;28;20136;-85
2022/05/10 01:14:04;;;;;;;6.30;2.95;;;;;;;9.07;100.00;97903.09;5051999;28;20037;-86
2022/05/10 01:16:30;;;;;;;4.85;3.42;;;;;;;8.91;100.00;97880.78;5044912;28;20566;-86
2022/05/10 01:18:56;;;;;;;7.03;3.50;;;;;;;8.92;100.00;97903.81;5052317;28;20025;-86
2022/05/10 01:21:50;;;;;;;5.38;3.40;;;;;;;8.85;100.00;97901.56;5035959;28;20025;-85
2022/05/10 01:24:34;;;;;;;9.50;3.08;;;;;;;8.83;100.00;97904.28;5068688;28;20888;-86
2022/05/10 01:27:32;;;;;;;6.38;2.88;;;;;;;8.69;100.00;97912.09;5068180;28;20055;-85
2022/05/10 01:30:11;;;;;;;7.10;3.50;;;;;;;8.70;100.00;97892.50;5035331;28;20044;-86
2022/05/10 01:33:30;;;;;;;7.28;3.22;;;;;;;8.83;100.00;97904.28;5046229;28;20029;-86
2022/05/10 01:36:02;;;;;;;8.85;3.05;;;;;;;8.79;100.00;97902.72;5049165;28;20024;-85
2022/05/10 01:38:36;;;;;;;7.63;3.22;;;;;;;8.74;100.00;97899.41;5068796;28;20024;-85
2022/05/10 01:41:09;;;;;;;6.47;3.97;;;;;;;8.80;100.00;97893.75;5034817;28;20075;-85
2022/05/10 01:43:46;;;;;;;7.32;3.55;;;;;;;8.74;100.00;97888.72;5035528;28;20029;-85
2022/05/10 01:46:15;;;;;;;7.43;3.22;;;;;;;8.68;100.00;97883.69;5052877;28;20024;-85
2022/05/10 01:48:42;;;;;;;5.57;3.28;;;;;;;8.62;100.00;97884.88;5035853;28;20084;-86
2022/05/10 01:51:14;;;;;;;8.45;3.40;;;;;;;8.62;100.00;97878.66;5045003;28;20047;-85
2022/05/10 01:53:41;;;;;;;7.55;3.58;;;;;;;8.63;100.00;97891.06;5035088;28;20035;-86
2022/05/10 01:56:11;;;;;;;8.73;3.83;;;;;;;8.59;100.00;97884.16;5051389;28;20036;-85
2022/05/10 01:58:38;;;;;;;8.07;3.17;;;;;;;8.51;100.00;97889.00;5051931;28;20036;-85
2022/05/10 02:01:09;;;;;;;9.65;3.50;;;;;;;8.45;100.00;97889.28;5035251;28;20517;-85
2022/05/10 02:04:04;;;;;;;6.82;3.47;;;;;;;8.44;100.00;97895.56;5068521;28;20029;-84
2022/05/10 02:06:34;;;;;;;6.57;3.17;;;;;;;8.29;100.00;97875.84;5050179;28;20041;-85
2022/05/10 02:09:27;;;;;;;10.80;3.35;;;;;;;8.25;100.00;97866.22;5069369;28;20408;-85
2022/05/10 02:12:07;;;;;;;10.88;3.20;;;;;;;8.24;100.00;97882.28;5045649;28;20035;-76
2022/05/10 02:14:43;;;;;;;7.68;3.70;;;;;;;8.18;100.00;97886.94;5070683;28;20416;-84
2022/05/10 02:17:19;;;;;;;10.75;4.55;;;;;;;8.18;100.00;97889.63;5047600;28;20115;-85
2022/05/10 02:19:54;;;;;;;4.93;3.40;;;;;;;8.25;100.00;97884.00;5046565;28;20040;-84
2022/05/10 02:22:27;;;;;;;5.38;3.30;;;;;;;8.21;100.00;97885.09;5055900;28;20040;-85
2022/05/10 02:24:58;;;;;;;13.48;3.83;;;;;;;8.17;100.00;97866.59;5039212;28;20033;-84
2022/05/10 02:27:36;;;;;;;6.68;3.55;;;;;;;8.19;100.00;97882.50;5039675;28;20029;-85
2022/05/10 02:30:07;;;;;;;11.68;3.97;;;;;;;8.16;100.00;97890.63;5039080;28;20037;-84
2022/05/10 02:35:28;;;;;;;15.27;4.25;;;;;;;8.05;100.00;97877.81;5054640;28;20048;-84
2022/05/10 02:37:54;;;;;;;13.25;4.45;;;;;;;8.03;100.00;97857.50;5038201;28;20025;-84
2022/05/10 02:40:19;;;;;;;13.18;4.15;;;;;;;8.24;100.00;97871.63;5055039;28;20029;-85
2022/05/10 02:42:47;;;;;;;17.02;4.07;;;;;;;8.24;100.00;97871.63;5038712;28;20108;-84
2022/05/10 02:45:18;;;;;;;19.52;4.43;;;;;;;8.07;100.00;97865.28;5038991;28;20033;-84
2022/05/10 02:47:45;;;;;;;7.65;3.80;;;;;;;8.04;100.00;97865.44;5038512;28;20447;-86
2022/05/10 02:50:19;;;;;;;8.93;4.68;;;;;;;8.09;100.00;97858.09;5055620;28;20025;-84
2022/05/10 02:52:45;;;;;;;11.18;3.72;;;;;;;8.28;100.00;97879.44;5048204;28;20102;-86
2022/05/10 02:55:34;;;;;;;10.07;3.53;;;;;;;8.31;100.00;97889.94;5054874;28;20028;-85
2022/05/10 02:58:06;;;;;;;6.35;3.50;;;;;;;8.31;100.00;97889.06;5042270;28;20473;-86
2022/05/10 03:00:32;;;;;;;11.13;4.03;;;;;;;8.25;100.00;97886.66;5055319;28;20036;-84
2022/05/10 03:03:03;;;;;;;12.98;4.25;;;;;;;8.22;100.00;97885.00;5038313;28;20136;-84
2022/05/10 03:05:29;;;;;;;9.60;4.70;;;;;;;8.24;100.00;97891.16;5053841;28;20072;-85
2022/05/10 03:07:55;;;;;;;12.25;6.53;;;;;;;8.08;100.00;97885.69;5055163;28;20067;-84
2022/05/10 03:10:22;;;;;;;13.60;6.45;;;;;;;8.03;100.00;97895.66;5038013;28;20029;-84
2022/05/10 03:12:48;;;;;;;13.82;6.50;;;;;;;7.89;100.00;97870.59;5054347;28;20116;-84
2022/05/10 03:15:14;;;;;;;29.15;7.20;;;;;;;8.03;100.00;97885.00;5055466;28;20025;-84
2022/05/10 03:17:40;;;;;;;38.65;10.10;;;;;;;8.02;100.00;97898.41;5038768;28;20408;-84
2022/05/10 03:20:08;;;;;;;23.73;7.93;;;;;;;8.02;100.00;97887.75;5038921;28;20025;-85
2022/05/10 03:22:34;;;;;;;22.83;7.57;;;;;;;8.02;100.00;97888.63;5037777;28;20032;-85
2022/05/10 03:24:59;;;;;;;10.30;4.28;;;;;;;7.89;100.00;97868.81;5055734;28;20167;-85
2022/05/10 03:27:25;;;;;;;14.40;4.93;;;;;;;8.07;100.00;97899.06;5039373;28;20031;-85
2022/05/10 03:29:51;;;;;;;27.27;6.55;;;;;;;8.17;100.00;97903.91;5055536;28;20048;-85
2022/05/10 03:32:17;;;;;;;25.98;6.38;;;;;;;8.08;100.00;97893.66;5055346;28;20087;-86
2022/05/10 03:34:54;;;;;;;14.48;6.68;;;;;;;8.11;100.00;97904.19;5038036;28;20411;-86
2022/05/10 03:37:21;;;;;;;12.80;6.43;;;;;;;7.90;100.00;97867.88;5040579;28;20067;-84
2022/05/10 03:39:46;;;;;;;19.23;7.38;;;;;;;8.04;100.00;97894.75;5054550;28;20029;-85
2022/05/10 03:42:12;;;;;;;18.60;6.55;;;;;;;8.05;100.00;97899.16;5038683;28;20393;-85
2022/05/10 03:44:38;;;;;;;16.15;6.90;;;;;;;8.06;100.00;97908.84;5054900;28;20025;-85
2022/05/10 03:47:09;;;;;;;19.25;6.80;;;;;;;7.98;100.00;97913.66;5041414;28;20060;-85
2022/05/10 03:49:35;;;;;;;14.98;6.18;;;;;;;7.86;100.00;97900.03;5055161;28;20032;-85
2022/05/10 03:52:01;;;;;;;16.42;6.03;;;;;;;7.74;100.00;97866.84;5056430;28;20025;-85
2022/05/10 03:54:27;;;;;;;16.92;5.78;;;;;;;8.03;100.00;97922.31;5054323;28;20471;-85
2022/05/10 03:57:02;;;;;;;20.95;6.18;;;;;;;8.09;100.00;97906.03;5055613;28;20401;-85
2022/05/10 03:59:27;;;;;;;15.50;6.53;;;;;;;8.21;100.00;97915.28;5039731;28;20025;-86
2022/05/10 04:01:53;;;;;;;23.08;6.38;;;;;;;8.37;100.00;97926.09;5055062;28;20029;-85
2022/05/10 04:04:19;;;;;;;13.75;6.32;;;;;;;8.42;100.00;97914.31;5037566;28;20111;-85
2022/05/10 04:06:46;;;;;;;22.13;6.47;;;;;;;8.39;100.00;97900.25;5055103;28;20029;-86
2022/05/10 04:09:11;;;;;;;23.05;6.40;;;;;;;8.51;100.00;97891.66;5038629;28;20040;-85
2022/05/10 04:11:37;;;;;;;17.40;6.05;;;;;;;8.68;100.00;97910.38;5051465;28;20079;-85
2022/05/10 04:14:03;;;;;;;16.08;6.10;;;;;;;8.76;100.00;97910.00;5037372;28;20358;-86
2022/05/10 04:16:29;;;;;;;15.40;6.90;;;;;;;8.71;100.00;97896.88;5054552;28;20028;-85
2022/05/10 04:18:55;;;;;;;17.83;7.07;;;;;;;8.98;100.00;97914.19;5053413;28;20032;-86
2022/05/10 04:21:20;;;;;;;11.73;6.05;;;;;;;9.56;100.00;97917.47;5037313;28;20582;-86
2022/05/10 04:23:46;;;;;;;18.17;6.55;;;;;;;10.63;95.18;97928.59;5053522;28;20029;-85
2022/05/10 04:26:15;;;;;;;15.13;6.18;;;;;;;11.65;85.76;97931.53;5037724;28;20035;-85
2022/05/10 04:28:43;;;;;;;15.80;7.10;;;;;;;11.54;83.04;97923.25;5055949;28;20048;-85
2022/05/10 04:31:09;;;;;;;22.48;6.25;;;;;;;10.86;85.81;97942.38;5032319;28;20408;-74
2022/05/10 04:33:35;;;;;;;27.33;8.27;;;;;;;10.62;89.71;97932.19;5049108;28;20037;-75
2022/05/10 04:36:00;;;;;;;21.80;8.55;;;;;;;10.65;90.16;97940.06;5031117;28;20083;-77
2022/05/10 04:38:26;;;;;;;27.90;9.00;;;;;;;10.52;91.32;97931.84;5034794;28;20511;-76
2022/05/10 04:43:37;;;;;;;26.45;11.40;;;;;;;10.46;92.04;97936.69;5049265;28;20087;-77
2022/05/10 04:46:03;;;;;;;24.38;10.93;;;;;;;10.57;93.07;97939.63;5047435;28;20493;-77
2022/05/10 04:48:29;;;;;;;26.60;10.05;;;;;;;10.62;93.33;97941.09;5050279;28;20033;-77
2022/05/10 04:50:54;;;;;;;23.58;10.00;;;;;;;10.50;93.68;97932.88;5032857;28;20518;-74
2022/05/10 04:53:20;;;;;;;23.73;10.52;;;;;;;10.58;94.04;97946.72;5033637;28;20021;-75
2022/05/10 04:55:48;;;;;;;19.00;8.60;;;;;;;10.59;93.50;97949.28;5033752;28;20040;-75
2022/05/10 04:58:14;;;;;;;24.80;9.70;;;;;;;10.68;93.47;97958.59;5033782;28;20031;-77
2022/05/10 05:00:40;;;;;;;30.02;11.40;;;;;;;10.84;92.18;97948.78;5017204;28;20064;-76
2022/05/10 05:03:06;;;;;;;35.15;10.00;;;;;;;10.83;91.92;97949.72;5033584;28;20064;-76
2022/05/10 05:05:31;;;;;;;20.13;9.38;;;;;;;10.99;90.37;97942.56;5033472;28;20033;-76
2022/05/10 05:07:57;;;;;;;16.67;8.50;;;;;;;11.06;90.33;97943.94;5049862;28;20029;-76
2022/05/10 05:10:24;;;;;;;28.25;9.55;;;;;;;11.25;89.19;97936.56;5050203;28;20396;-76
2022/05/10 05:12:50;;;;;;;15.38;8.77;;;;;;;11.24;88.36;97932.16;5033570;28;20537;-77
2022/05/10 05:15:16;;;;;;;23.50;9.93;;;;;;;11.44;86.60;97926.47;5050019;28;20032;-76
2022/05/10 05:17:42;;;;;;;15.43;8.38;;;;;;;11.64;85.87;97933.34;5050223;28;20412;-76
2022/05/10 05:20:08;;;;;;;15.80;7.95;;;;;;;11.97;83.34;97935.81;5050197;28;20234;-77
2022/05/10 05:22:34;;;;;;;25.40;8.48;;;;;;;13.77;76.04;97934.75;5033337;28;20029;-73
2022/05/10 05:25:00;;;;;;;26.52;8.05;;;;;;;16.14;64.78;97923.50;5033605;28;20530;-75
2022/05/10 05:27:25;;;;;;;18.40;7.20;;;;;;;18.07;56.14;97909.25;5032965;28;20115;-76
2022/05/10 05:29:52;;;;;;;18.42;7.13;;;;;;;19.38;51.02;97907.38;5049914;28;20116;-76
2022/05/10 05:32:22;;;;;;;14.70;7.18;;;;;;;20.70;47.46;97902.16;5032925;28;20120;-76
2022/05/10 05:34:47;;;;;;;10.75;6.88;;;;;;;21.87;43.88;97886.63;5049574;28;20028;-76
2022/05/10 05:39:57;;;;;;;12.93;6.97;;;;;;;21.67;42.69;97887.84;5049726;28;20094;-76
2022/05/10 05:42:23;;;;;;;18.48;10.25;;;;;;;21.53;43.97;97902.00;5032677;28;20476;-76
2022/05/10 05:44:50;;;;;;;15.02;8.02;;;;;;;22.46;41.49;97887.81;5049991;28;20021;-75
2022/05/10 05:47:16;;;;;;;19.35;8.23;;;;;;;23.88;39.32;97891.47;5032735;28;20024;-76
2022/05/10 05:49:42;;;;;;;15.98;6.68;;;;;;;23.16;39.79;97887.50;5049381;28;20029;-77
2022/05/10 05:52:07;;;;;;;20.83;6.80;;;;;;;23.72;38.90;97881.38;5049103;28;20032;-77
2022/05/10 05:54:33;;;;;;;16.05;6.93;;;;;;;23.90;38.57;97886.69;5049170;28;20078;-76
2022/05/10 05:57:04;;;;;;;15.43;6.00;;;;;;;23.54;39.09;97894.31;5032696;28;20467;-75
2022/05/10 05:59:30;;;;;;;38.95;20.27;;;;;;;25.08;37.19;97891.50;5048926;28;20020;-76
2022/05/10 06:01:56;;;;;;;29.85;18.58;;;;;;;26.37;34.89;97883.31;5032552;28;20511;-76
2022/05/10 06:04:21;;;;;;;13.30;6.72;;;;;;;26.33;34.31;97879.22;5032169;28;20032;-77
2022/05/10 06:06:47;;;;;;;22.65;6.75;;;;;;;26.38;33.96;97871.31;5032402;28;20051;-77
2022/05/10 06:09:13;;;;;;;11.18;6.32;;;;;;;26.80;33.55;97883.59;5049096;28;20031;-76
2022/05/10 06:11:39;;;;;;;15.40;5.93;;;;;;;27.50;31.65;97878.47;5032457;28;20477;-77
2022/05/10 06:14:05;;;;;;;13.98;5.50;;;;;;;26.87;32.94;97881.81;5032385;28;20035;-77
2022/05/10 06:16:30;;;;;;;18.00;6.40;;;;;;;25.26;34.79;97884.75;5048783;28;20025;-76
2022/05/10 06:18:56;;;;;;;14.68;7.05;;;;;;;26.24;34.43;97891.31;5049155;28;20337;-76
2022/05/10 06:21:22;;;;;;;15.73;7.13;;;;;;;26.97;33.36;97887.88;5048558;28;20465;-76
2022/05/10 06:23:47;;;;;;;22.40;6.90;;;;;;;26.42;33.54;97887.41;5049110;28;20028;-76
2022/05/10 06:26:13;;;;;;;15.82;6.38;;;;;;;26.67;33.49;97891.63;5048977;28;20029;-77
2022/05/10 06:28:43;;;;;;;10.85;5.78;;;;;;;27.64;32.02;97860.22;5024167;28;20507;-77
2022/05/10 06:31:09;;;;;;;12.85;7.03;;;;;;;27.41;32.22;97874.06;5048730;28;20124;-76
2022/05/10 06:33:36;;;;;;;16.80;7.25;;;;;;;27.50;32.01;97850.13;5048716;28;20036;-76
2022/05/10 06:36:03;;;;;;;8.82;5.90;;;;;;;26.24;33.59;97885.84;5048919;28;20031;-76
2022/05/10 06:38:28;;;;;;;8.18;5.05;;;;;;;26.01;34.28;97887.72;5031921;28;20029;-76
2022/05/10 06:40:55;;;;;;;11.32;5.18;;;;;;;25.61;35.08;97888.88;5048677;28;20409;-76
2022/05/10 06:43:22;;;;;;;8.57;4.53;;;;;;;25.90;34.81;97893.66;5032301;28;20449;-77
2022/05/10 06:45:48;;;;;;;7.35;4.18;;;;;;;25.09;36.21;97896.81;5033217;28;20108;-77
2022/05/10 06:48:14;;;;;;;5.65;4.47;;;;;;;25.67;35.64;97899.09;5049658;28;20028;-76
2022/05/10 06:50:41;;;;;;;11.82;4.43;;;;;;;26.08;35.15;97899.69;5048508;28;20436;-76
2022/05/10 06:53:07;;;;;;;8.32;4.43;;;;;;;25.73;34.97;97881.06;5048746;28;20032;-77
2022/05/10 06:55:34;;;;;;;9.10;4.25;;;;;;;27.00;33.85;97890.25;5048391;28;20075;-76
2022/05/10 06:58:01;;;;;;;11.65;4.22;;;;;;;27.74;32.43;97886.38;5052311;28;20029;-78
2022/05/10 07:00:27;;;;;;;7.15;3.47;;;;;;;27.47;32.87;97892.59;5052433;28;20455;-77
2022/05/10 07:02:53;;;;;;;10.23;4.07;;;;;;;28.48;32.23;97893.28;5035640;28;20025;-77
2022/05/10 07:05:19;;;;;;;12.15;3.75;;;;;;;28.61;31.87;97895.25;5035856;28;20496;-77
2022/05/10 07:07:45;;;;;;;4.78;2.92;;;;;;;29.55;30.59;97883.59;5068831;28;20025;-78
2022/05/10 07:10:12;;;;;;;9.05;3.08;;;;;;;28.08;30.87;97876.59;5035514;28;20107;-78
2022/05/10 07:12:40;;;;;;;16.10;3.20;;;;;;;26.96;32.36;97886.16;5052074;28;20037;-78
2022/05/10 07:15:07;;;;;;;8.38;3.60;;;;;;;26.74;34.25;97903.53;5052407;28;20033;-77
2022/05/10 07:17:32;;;;;;;11.68;3.40;;;;;;;27.37;33.92;97887.38;5052025;28;20337;-77
2022/05/10 07:19:58;;;;;;;16.25;6.30;;;;;;;28.96;32.07;97893.41;5052113;28;20108;-77
2022/05/10 07:22:25;;;;;;;9.27;4.80;;;;;;;29.78;30.32;97887.91;5068683;28;20057;-77
2022/05/10 07:24:51;;;;;;;7.47;4.15;;;;;;;29.75;30.58;97878.13;5051892;28;20082;-77
2022/05/10 07:27:17;;;;;;;11.07;3.55;;;;;;;29.95;29.69;97875.47;5035296;28;20547;-77
2022/05/10 07:29:43;;;;;;;9.13;4.43;;;;;;;30.70;27.95;97877.88;5052383;28;20084;-77
2022/05/10 07:32:10;;;;;;;20.10;5.68;;;;;;;31.64;27.60;97879.16;5052080;28;20062;-76
2022/05/10 07:34:36;;;;;;;16.17;5.40;;;;;;;31.34;28.36;97872.44;5035010;28;20032;-77
2022/05/10 07:37:02;;;;;;;7.57;4.05;;;;;;;31.14;27.93;97868.88;5051820;28;20028;-77
2022/05/10 07:39:27;;;;;;;17.00;4.43;;;;;;;30.50;27.07;97866.84;5051973;28;20558;-77
2022/05/10 07:41:54;;;;;;;6.93;2.30;;;;;;;30.33;26.04;97862.75;5034593;28;20503;-77
2022/05/10 07:44:22;;;;;;;16.60;2.90;;;;;;;30.41;26.46;97848.78;5051866;28;20029;-77
2022/05/10 07:46:48;;;;;;;7.53;2.55;;;;;;;31.13;26.04;97851.44;5051519;28;20091;-78
2022/05/10 07:49:14;;;;;;;3.85;2.15;;;;;;;31.07;25.17;97851.50;5051809;28;20029;-78
2022/05/10 07:51:40;;;;;;;5.57;2.55;;;;;;;32.32;24.26;97837.88;5034602;28;20192;-77
2022/05/10 07:54:05;;;;;;;5.45;2.47;;;;;;;33.66;23.53;97838.81;5051447;28;20029;-78
2022/05/10 07:56:31;;;;;;;4.15;2.38;;;;;;;34.09;23.27;97844.19;5051727;28;20029;-77
2022/05/10 07:58:57;;;;;;;3.08;1.77;;;;;;;32.93;23.68;97837.09;5051445;28;20029;-77
2022/05/10 08:01:24;;;;;;;6.07;2.00;;;;;;;32.84;23.78;97838.47;5051303;28;20025;-77
2022/05/10 08:03:49;;;;;;;13.77;2.38;;;;;;;31.16;25.86;97836.34;5051405;28;20024;-77
2022/05/10 08:06:18;;;;;;;10.98;3.03;;;;;;;31.76;25.45;97839.72;5051377;28;20035;-77
2022/05/10 08:08:43;;;;;;;10.85;2.60;;;;;;;31.92;25.50;97836.44;5050619;28;20068;-77
2022/05/10 08:11:09;;;;;;;4.68;2.30;;;;;;;32.42;24.57;97837.38;5034675;28;20049;-77
2022/05/10 08:13:37;;;;;;;6.07;2.17;;;;;;;33.35;23.24;97827.88;5034723;28;20531;-77
2022/05/10 08:16:03;;;;;;;8.10;2.60;;;;;;;34.54;22.56;97827.91;5051322;28;20024;-78
2022/05/10 08:18:29;;;;;;;4.03;2.08;;;;;;;33.79;23.38;97830.31;5034527;28;20382;-76
2022/05/10 08:20:58;;;;;;;9.57;2.50;;;;;;;34.42;23.21;97832.59;5034200;28;20143;-77
2022/05/10 08:23:26;;;;;;;6.43;2.78;;;;;;;33.93;23.15;97833.78;5051030;28;20466;-77
2022/05/10 08:25:54;;;;;;;5.10;2.10;;;;;;;33.44;22.87;97820.13;5051059;28;20083;-77
2022/05/10 08:28:22;;;;;;;4.20;2.25;;;;;;;34.59;22.46;97828.03;5050878;28;20033;-78
2022/05/10 08:30:48;;;;;;;5.10;2.38;;;;;;;34.78;21.80;97828.78;5033966;28;20551;-78
2022/05/10 08:33:24;;;;;;;4.78;2.28;;;;;;;35.08;21.07;97821.13;5034344;28;20111;-77
2022/05/10 08:35:51;;;;;;;4.03;2.28;;;;;;;35.38;21.22;97812.63;5050561;28;20025;-78
2022/05/10 08:38:17;;;;;;;5.72;2.10;;;;;;;35.57;20.77;97813.28;5050700;28;20032;-78
2022/05/10 08:41:06;;;;;;;7.45;2.28;;;;;;;35.46;20.29;97812.25;5050378;28;20408;-78
2022/05/10 08:43:39;;;;;;;7.85;2.20;;;;;;;34.90;20.58;97806.50;5050809;28;20037;-78
2022/05/10 08:46:12;;;;;;;5.88;2.85;;;;;;;35.12;20.80;97802.03;5034282;28;20031;-79
2022/05/10 08:48:38;;;;;;;14.95;2.28;;;;;;;34.11;21.49;97802.31;5050711;28;20021;-78
2022/05/10 08:51:05;;;;;;;3.28;1.98;;;;;;;33.93;22.32;97805.16;5033739;28;20032;-78
2022/05/10 08:53:31;;;;;;;5.90;2.15;;;;;;;34.57;21.26;97818.22;5050637;28;20032;-78
2022/05/10 08:56:21;;;;;;;5.28;1.98;;;;;;;34.62;21.15;97807.25;5050325;28;20021;-79
2022/05/10 08:59:20;;;;;;;5.13;2.40;;;;;;;35.32;21.53;97808.03;5051323;28;20032;-77
2022/05/10 09:01:58;;;;;;;5.20;1.70;;;;;;;33.47;22.16;97800.22;5035798;28;20040;-77
2022/05/10 09:04:45;;;;;;;6.18;3.33;;;;;;;34.52;21.79;97810.59;5044835;28;20029;-77
2022/05/10 09:07:33;;;;;;;3.83;2.45;;;;;;;34.53;21.67;97806.72;5051118;28;20557;-78
2022/05/10 09:10:10;;;;;;;8.05;3.28;;;;;;;35.66;20.59;97800.69;5050211;28;20032;-78
2022/05/10 09:13:14;;;;;;;5.70;3.92;;;;;;;35.70;20.48;97791.63;5050564;28;20032;-78
2022/05/10 09:15:50;;;;;;;7.32;2.40;;;;;;;35.26;20.87;97801.53;4988940;28;20068;-78
2022/05/10 09:18:24;;;;;;;14.07;3.47;;;;;;;35.87;20.79;97786.91;5039985;28;20061;-79
2022/05/10 09:21:16;;;;;;;12.88;3.20;;;;;;;36.78;20.22;97796.06;5029297;28;20485;-79
2022/05/10 09:24:06;;;;;;;8.52;3.60;;;;;;;37.06;19.16;97782.00;5041825;28;20094;-78
2022/05/10 09:26:37;;;;;;;5.72;2.17;;;;;;;37.26;19.10;97776.66;5045007;28;20067;-78
2022/05/10 09:29:21;;;;;;;;;;;;;;;37.32;18.87;97777.56;5050871;28;20025;-78
2022/05/10 09:34:46;;;;;;;10.02;2.08;;;;;;;34.52;21.87;97781.94;5050236;28;20051;-78
2022/05/10 09:37:29;;;;;;;4.23;1.90;;;;;;;34.40;20.96;97773.59;5034495;28;20033;-78
2022/05/10 09:39:58;;;;;;;6.57;2.08;;;;;;;35.68;20.43;97768.75;5050876;28;20774;-78
2022/05/10 09:42:32;;;;;;;8.25;2.40;;;;;;;36.33;20.17;97762.69;5050654;28;20066;-79
2022/05/10 09:45:12;;;;;;;20.23;3.67;;;;;;;35.71;20.66;97765.47;5032956;28;20032;-77
2022/05/10 09:47:38;;;;;;;3.20;2.40;;;;;;;35.71;20.65;97765.47;5066189;28;20047;-78
2022/05/10 09:50:14;;;;;;;5.03;2.25;;;;;;;34.78;21.21;97765.66;5032897;28;20083;-78
2022/05/10 09:52:40;;;;;;;5.25;2.00;;;;;;;34.22;21.94;97771.78;5049239;28;20029;-78
2022/05/10 09:55:09;;;;;;;8.52;2.10;;;;;;;33.69;21.62;97759.78;5049494;28;20381;-78
2022/05/10 09:57:39;;;;;;;3.53;2.08;;;;;;;33.77;22.49;97759.47;5032921;28;20475;-77
2022/05/10 10:00:08;;;;;;;3.85;2.75;;;;;;;34.27;21.89;97762.75;5049987;28;20504;-79
2022/05/10 10:02:39;;;;;;;3.30;2.20;;;;;;;35.69;20.71;97753.72;5032422;28;20060;-79
2022/05/10 10:05:28;;;;;;;4.35;2.15;;;;;;;37.16;19.34;97745.84;5032896;28;20079;-77
2022/05/10 10:07:56;;;;;;;8.23;2.30;;;;;;;35.40;20.37;97742.81;5049642;28;20031;-78
2022/05/10 10:10:33;;;;;;;6.55;1.98;;;;;;;34.03;21.71;97750.69;5033015;28;20516;-78
2022/05/10 10:12:59;;;;;;;6.75;2.00;;;;;;;35.28;20.60;97740.06;5049375;28;20020;-79
2022/05/10 10:15:38;;;;;;;4.95;3.83;;;;;;;35.94;20.54;97735.78;5049074;28;20032;-80
2022/05/10 10:18:09;;;;;;;4.05;3.05;;;;;;;36.50;20.19;97735.63;5049138;28;20037;-79
2022/05/10 10:20:53;;;;;;;9.82;2.83;;;;;;;36.15;21.00;97732.25;5032986;28;20489;-79
2022/05/10 10:23:24;;;;;;;7.20;2.40;;;;;;;38.31;18.74;97733.41;5032577;28;20040;-79
2022/05/10 10:25:50;;;;;;;6.53;3.03;;;;;;;38.81;18.59;97728.25;5049226;28;20032;-79
2022/05/10 10:28:24;;;;;;;7.78;2.72;;;;;;;37.76;18.96;97706.63;5049176;28;20033;-77
2022/05/10 10:30:56;;;;;;;6.85;2.30;;;;;;;37.67;19.19;97721.34;5032382;28;20037;-78
2022/05/10 10:34:04;;;;;;;4.45;2.00;;;;;;;37.68;19.65;97718.28;5036625;28;20171;-78
2022/05/10 10:36:35;;;;;;;5.97;2.53;;;;;;;37.87;19.19;97718.75;5001741;28;20094;-78
2022/05/10 10:39:17;;;;;;;5.75;2.85;;;;;;;37.99;18.53;97708.28;5053501;28;20198;-78
2022/05/10 10:41:57;;;;;;;4.63;1.85;;;;;;;39.04;17.26;97704.56;5053194;28;20044;-78
2022/05/10 10:44:25;;;;;;;4.30;2.28;;;;;;;38.18;18.66;97703.13;5053550;28;20507;-79
2022/05/10 10:46:59;;;;;;;5.75;2.22;;;;;;;38.01;18.88;97697.66;5052996;28;20021;-79
2022/05/10 10:49:30;;;;;;;22.00;3.53;;;;;;;38.55;18.44;97701.16;5069688;28;20349;-79
2022/05/10 10:51:57;;;;;;;8.35;2.58;;;;;;;37.55;19.08;97704.75;5053310;28;20028;-78
2022/05/10 10:54:25;;;;;;;10.52;2.63;;;;;;;37.65;18.82;97695.63;5052877;28;20033;-78
2022/05/10 10:57:04;;;;;;;8.38;2.30;;;;;;;37.22;19.28;97696.53;5052990;28;20021;-79
2022/05/10 11:00:04;;;;;;;4.65;2.90;;;;;;;37.66;18.55;97691.69;5069527;28;20025;-78
2022/05/10 11:02:37;;;;;;;3.42;2.47;;;;;;;34.23;20.66;97692.06;5050371;28;20485;-77
2022/05/10 11:05:31;;;;;;;7.35;3.13;;;;;;;35.70;20.99;97691.38;5045277;28;20021;-78
2022/05/10 11:08:18;;;;;;;8.15;3.35;;;;;;;36.77;19.59;97680.84;5052342;28;20396;-79
2022/05/10 11:10:50;;;;;;;6.38;2.88;;;;;;;36.42;19.38;97680.31;5052339;28;20024;-78
2022/05/10 11:13:34;;;;;;;5.45;2.50;;;;;;;36.22;19.56;97686.41;5069176;28;20063;-79
2022/05/10 11:15:59;;;;;;;4.70;2.70;;;;;;;37.15;19.11;97676.31;5068924;28;20104;-78
2022/05/10 11:18:57;;;;;;;8.45;2.88;;;;;;;37.24;18.16;97674.75;5053733;28;20557;-78
2022/05/10 11:21:41;;;;;;;4.40;2.30;;;;;;;35.94;19.78;97661.41;5048173;28;20076;-79
2022/05/10 11:24:22;;;;;;;13.75;2.65;;;;;;;37.04;18.87;97671.75;5068917;28;20063;-78
2022/05/10 11:27:32;;;;;;;7.45;2.92;;;;;;;36.67;18.65;97665.94;5068678;28;20052;-78
2022/05/10 11:30:13;;;;;;;7.55;2.53;;;;;;;36.55;18.71;97663.25;5034488;28;20099;-78
2022/05/10 11:33:03;;;;;;;5.72;2.60;;;;;;;34.89;20.24;97654.66;5052206;28;20443;-78
2022/05/10 11:35:46;;;;;;;4.13;2.58;;;;;;;35.82;19.29;97660.66;5068638;28;20069;-78
2022/05/10 11:38:19;;;;;;;7.43;2.00;;;;;;;36.31;18.92;97650.59;5044669;28;20032;-77
2022/05/10 11:40:53;;;;;;;6.45;2.63;;;;;;;33.84;21.02;97651.09;5034868;28;20496;-78
2022/05/10 11:43:40;;;;;;;5.53;2.38;;;;;;;34.05;20.55;97631.91;5034402;28;20029;-78
2022/05/10 11:46:45;;;;;;;7.03;2.75;;;;;;;34.87;19.99;97629.03;5067940;28;20488;-78
2022/05/10 11:49:11;;;;;;;10.57;3.38;;;;;;;34.88;20.37;97637.13;5068227;28;20039;-79
2022/05/10 11:51:49;;;;;;;5.50;3.15;;;;;;;35.76;19.83;97634.66;5052960;28;20033;-79
2022/05/10 11:54:50;;;;;;;7.13;3.03;;;;;;;35.35;20.04;97640.56;5051692;28;20032;-78
2022/05/10 11:57:18;;;;;;;7.35;3.03;;;;;;;35.50;19.97;97626.91;5051467;28;20017;-78
2022/05/10 11:59:45;;;;;;;10.15;3.20;;;;;;;35.11;19.91;97627.84;5034431;28;20056;-79